createdAt,value
2023-05-10T00:01:31.814Z,5.17
2023-05-10T00:03:41.684Z,4.17
2023-05-10T00:05:50.422Z,4.33
2023-05-10T00:07:58.966Z,4.40
2023-05-10T00:10:09.918Z,4.57
2023-05-10T00:12:18.642Z,4.20
2023-05-10T00:14:27.115Z,4.40
2023-05-10T00:16:35.784Z,4.00
2023-05-10T00:18:44.392Z,4.90
2023-05-10T00:20:53.408Z,4.40
2023-05-10T00:23:02.335Z,4.43
2023-05-10T00:25:14.454Z,4.30
2023-05-10T00:27:23.403Z,3.90
2023-05-10T00:29:32.794Z,4.90
2023-05-10T00:31:41.100Z,4.37
2023-05-10T00:33:49.914Z,4.30
2023-05-10T00:35:58.688Z,4.30
2023-05-10T00:38:07.144Z,4.70
2023-05-10T00:40:17.948Z,4.17
2023-05-10T00:42:26.920Z,4.63
2023-05-10T00:44:35.567Z,5.00
2023-05-10T00:46:44.569Z,4.40
2023-05-10T00:48:53.360Z,4.80
2023-05-10T00:51:02.852Z,4.03
2023-05-10T00:53:12.638Z,4.50
2023-05-10T00:55:23.147Z,3.97
2023-05-10T00:57:31.616Z,4.37
2023-05-10T00:59:39.949Z,4.40
2023-05-10T01:01:49.270Z,4.50
2023-05-10T01:03:58.352Z,4.30
2023-05-10T01:06:08.769Z,4.60
2023-05-10T01:08:17.333Z,4.50
2023-05-10T01:10:27.606Z,4.27
2023-05-10T01:12:37.323Z,4.47
2023-05-10T01:14:46.110Z,4.60
2023-05-10T01:16:55.802Z,4.40
2023-05-10T01:19:06.349Z,4.30
2023-05-10T01:21:21.729Z,4.40
2023-05-10T01:23:53.766Z,4.73
2023-05-10T01:26:26.082Z,4.50
2023-05-10T01:28:50.857Z,4.33
2023-05-10T01:31:33.740Z,4.33
2023-05-10T01:33:49.784Z,4.23
2023-05-10T01:36:15.668Z,4.00
2023-05-10T01:38:32.597Z,4.10
2023-05-10T01:40:49.159Z,4.23
2023-05-10T01:43:03.912Z,4.60
2023-05-10T01:45:20.637Z,4.50
2023-05-10T01:47:37.783Z,4.23
2023-05-10T01:49:52.345Z,4.23
2023-05-10T01:52:06.436Z,4.30
2023-05-10T01:54:17.868Z,4.40
2023-05-10T01:56:29.057Z,4.67
2023-05-10T01:58:41.257Z,4.40
2023-05-10T02:00:52.151Z,4.00
2023-05-10T02:03:02.536Z,4.10
2023-05-10T02:05:15.875Z,4.47
2023-05-10T02:07:25.726Z,4.30
2023-05-10T02:09:36.730Z,4.10
2023-05-10T02:11:46.170Z,4.47
2023-05-10T02:13:57.430Z,4.80
2023-05-10T02:16:07.523Z,4.00
2023-05-10T02:18:17.849Z,4.20
2023-05-10T02:20:28.804Z,4.80
2023-05-10T02:22:39.834Z,4.30
2023-05-10T02:24:49.840Z,4.40
2023-05-10T02:26:59.863Z,4.73
2023-05-10T02:29:10.630Z,4.77
2023-05-10T02:31:20.684Z,4.60
2023-05-10T02:33:30.244Z,4.37
2023-05-10T02:35:41.486Z,4.30
2023-05-10T02:37:51.871Z,4.27
2023-05-10T02:40:01.859Z,4.57
2023-05-10T02:42:11.543Z,4.70
2023-05-10T02:44:22.297Z,3.90
2023-05-10T02:46:31.149Z,4.30
2023-05-10T02:48:39.743Z,3.87
2023-05-10T02:50:52.571Z,3.97
2023-05-10T02:53:04.248Z,4.77
2023-05-10T02:55:17.076Z,4.50
2023-05-10T02:57:34.837Z,4.20
2023-05-10T02:59:43.955Z,4.47
2023-05-10T03:01:52.654Z,4.37
2023-05-10T03:04:01.398Z,4.87
2023-05-10T03:06:11.624Z,4.37
2023-05-10T03:08:20.357Z,4.67
2023-05-10T03:10:31.646Z,4.53
2023-05-10T03:12:59.509Z,4.40
2023-05-10T03:15:16.363Z,4.77
2023-05-10T03:17:31.662Z,4.43
2023-05-10T03:19:48.439Z,5.00
2023-05-10T03:22:06.062Z,5.70
2023-05-10T03:24:16.883Z,4.90
2023-05-10T03:26:29.717Z,4.80
2023-05-10T03:28:39.324Z,4.93
2023-05-10T03:30:48.560Z,4.90
2023-05-10T03:32:58.111Z,5.90
2023-05-10T03:35:10.005Z,5.50
2023-05-10T03:37:20.053Z,4.30
2023-05-10T03:39:28.600Z,4.27
2023-05-10T03:41:36.961Z,4.80
2023-05-10T03:43:45.546Z,4.37
2023-05-10T03:45:54.237Z,5.10
2023-05-10T03:48:03.141Z,5.00
2023-05-10T03:50:12.320Z,5.20
2023-05-10T03:52:22.816Z,5.50
2023-05-10T03:54:31.646Z,4.63
2023-05-10T03:56:40.509Z,5.13
2023-05-10T03:58:49.327Z,4.57
2023-05-10T04:00:57.633Z,4.87
2023-05-10T04:03:06.232Z,4.73
2023-05-10T04:05:15.111Z,5.30
2023-05-10T04:07:25.307Z,5.57
2023-05-10T04:09:34.134Z,4.80
2023-05-10T04:11:43.009Z,4.67
2023-05-10T04:13:51.514Z,4.87
2023-05-10T04:16:00.213Z,4.80
2023-05-10T04:18:09.226Z,4.97
2023-05-10T04:20:17.816Z,4.77
2023-05-10T04:22:28.902Z,4.90
2023-05-10T04:24:37.733Z,4.97
2023-05-10T04:26:46.655Z,4.80
2023-05-10T04:28:55.203Z,4.73
2023-05-10T04:31:04.857Z,4.63
2023-05-10T04:33:13.531Z,4.50
2023-05-10T04:35:22.558Z,4.60
2023-05-10T04:37:32.600Z,4.40
2023-05-10T04:39:42.336Z,4.30
2023-05-10T04:41:51.242Z,4.77
2023-05-10T04:43:59.583Z,4.87
2023-05-10T04:46:08.742Z,4.33
2023-05-10T04:48:17.522Z,4.50
2023-05-10T04:50:26.084Z,4.53
2023-05-10T04:52:37.425Z,4.37
2023-05-10T04:54:45.928Z,4.50
2023-05-10T04:56:54.959Z,4.40
2023-05-10T04:59:04.795Z,4.43
2023-05-10T05:01:13.628Z,4.40
2023-05-10T05:03:22.170Z,4.20
2023-05-10T05:05:30.658Z,4.03
2023-05-10T05:07:41.369Z,4.13
2023-05-10T05:09:50.314Z,5.07
2023-05-10T05:11:58.734Z,4.20
2023-05-10T05:14:07.160Z,4.30
2023-05-10T05:16:16.249Z,4.07
2023-05-10T05:18:24.785Z,3.97
2023-05-10T05:20:35.454Z,4.33
2023-05-10T05:22:45.381Z,4.53
2023-05-10T05:24:54.052Z,3.60
2023-05-10T05:27:02.855Z,4.00
2023-05-10T05:29:11.733Z,3.97
2023-05-10T05:31:20.564Z,4.53
2023-05-10T05:33:28.866Z,4.10
2023-05-10T05:35:37.741Z,4.00
2023-05-10T05:37:47.747Z,3.97
2023-05-10T05:39:56.572Z,3.57
2023-05-10T05:42:05.532Z,4.10
2023-05-10T05:44:14.276Z,3.77
2023-05-10T05:46:22.790Z,3.53
2023-05-10T05:48:32.686Z,3.73
2023-05-10T05:50:41.406Z,4.00
2023-05-10T05:52:52.496Z,3.83
2023-05-10T05:55:01.405Z,3.93
2023-05-10T05:57:10.298Z,3.97
2023-05-10T05:59:19.221Z,4.33
2023-05-10T06:01:28.051Z,4.10
2023-05-10T06:03:36.406Z,3.90
2023-05-10T06:05:44.741Z,3.80
2023-05-10T06:07:55.050Z,3.87
2023-05-10T06:10:04.385Z,3.43
2023-05-10T06:12:13.443Z,3.73
2023-05-10T06:14:23.526Z,4.10
2023-05-10T06:16:32.216Z,3.87
2023-05-10T06:18:40.809Z,4.27
2023-05-10T06:20:49.741Z,4.10
2023-05-10T06:22:59.581Z,3.77
2023-05-10T06:25:09.693Z,3.77
2023-05-10T06:27:18.474Z,3.80
2023-05-10T06:29:27.606Z,3.50
2023-05-10T06:31:36.409Z,4.03
2023-05-10T06:33:45.103Z,3.73
2023-05-10T06:35:53.686Z,3.93
2023-05-10T06:38:03.848Z,3.77
2023-05-10T06:40:13.204Z,3.57
2023-05-10T06:42:21.970Z,3.40
2023-05-10T06:44:30.319Z,3.70
2023-05-10T06:46:40.654Z,3.27
2023-05-10T06:48:49.463Z,3.70
2023-05-10T06:50:58.246Z,3.17
2023-05-10T06:53:11.054Z,3.90
2023-05-10T06:55:19.634Z,3.57
2023-05-10T06:57:31.858Z,3.53
2023-05-10T06:59:41.070Z,3.43
2023-05-10T07:01:49.893Z,3.67
2023-05-10T07:03:58.570Z,3.50
2023-05-10T07:06:13.349Z,3.53
2023-05-10T07:08:28.710Z,3.53
2023-05-10T07:10:37.260Z,3.87
2023-05-10T07:12:46.244Z,3.50
2023-05-10T07:14:54.793Z,3.27
2023-05-10T07:17:03.393Z,3.80
2023-05-10T07:19:12.756Z,3.53
2023-05-10T07:21:21.462Z,3.40
2023-05-10T07:23:31.752Z,3.73
2023-05-10T07:25:40.430Z,3.23
2023-05-10T07:27:49.649Z,3.60
2023-05-10T07:29:58.312Z,3.40
2023-05-10T07:32:07.295Z,3.60
2023-05-10T07:34:16.067Z,3.33
2023-05-10T07:36:24.699Z,3.87
2023-05-10T07:38:35.193Z,3.47
2023-05-10T07:40:43.522Z,3.30
2023-05-10T07:42:51.821Z,3.40
2023-05-10T07:45:00.669Z,3.30
2023-05-10T07:47:09.571Z,3.23
2023-05-10T07:49:18.480Z,3.30
2023-05-10T07:51:27.702Z,3.37
2023-05-10T07:53:37.685Z,3.53
2023-05-10T07:55:46.201Z,3.30
2023-05-10T07:57:54.549Z,3.70
2023-05-10T08:00:03.286Z,3.60
2023-05-10T08:02:11.851Z,3.63
2023-05-10T08:04:20.609Z,3.40
2023-05-10T08:06:32.056Z,3.47
2023-05-10T08:08:42.518Z,3.50
2023-05-10T08:10:51.272Z,3.50
2023-05-10T08:13:00.350Z,3.50
2023-05-10T08:15:10.357Z,3.70
2023-05-10T08:17:19.946Z,3.60
2023-05-10T08:19:29.338Z,3.40
2023-05-10T08:21:38.456Z,3.47
2023-05-10T08:23:48.511Z,3.50
2023-05-10T08:25:56.985Z,3.40
2023-05-10T08:28:05.779Z,3.00
2023-05-10T08:30:15.125Z,3.50
2023-05-10T08:32:23.512Z,3.40
2023-05-10T08:34:32.493Z,3.40
2023-05-10T08:36:41.124Z,3.60
2023-05-10T08:38:53.425Z,3.70
2023-05-10T08:41:04.141Z,3.17
2023-05-10T08:43:15.731Z,3.50
2023-05-10T08:45:26.896Z,3.30
2023-05-10T08:47:36.578Z,3.30
2023-05-10T08:49:47.299Z,3.30
2023-05-10T08:51:58.812Z,4.33
2023-05-10T08:54:09.286Z,3.27
2023-05-10T08:56:19.017Z,3.40
2023-05-10T08:58:28.518Z,3.60
2023-05-10T09:00:38.257Z,3.43
2023-05-10T09:02:48.252Z,4.07
2023-05-10T09:04:57.162Z,3.70
2023-05-10T09:07:06.428Z,3.47
2023-05-10T09:09:17.365Z,3.60
2023-05-10T09:11:26.987Z,4.40
2023-05-10T09:13:36.171Z,4.43
2023-05-10T09:15:45.899Z,4.10
2023-05-10T09:17:55.181Z,3.80
2023-05-10T09:20:05.123Z,3.93
2023-05-10T09:22:13.437Z,4.03
2023-05-10T09:24:28.473Z,3.40
2023-05-10T09:26:38.064Z,3.90
2023-05-10T09:28:54.603Z,4.00
2023-05-10T09:31:03.144Z,4.03
2023-05-10T09:33:11.978Z,3.50
2023-05-10T09:35:22.585Z,3.40
2023-05-10T09:37:32.925Z,3.77
2023-05-10T09:39:43.348Z,3.43
2023-05-10T09:41:51.876Z,3.50
2023-05-10T09:44:00.604Z,4.10
2023-05-10T09:46:12.534Z,3.83
2023-05-10T09:48:21.154Z,3.67
2023-05-10T09:50:30.128Z,3.27
2023-05-10T09:52:50.145Z,3.27
2023-05-10T09:55:00.952Z,3.43
2023-05-10T09:57:22.341Z,3.30
2023-05-10T09:59:31.882Z,3.67
2023-05-10T10:01:40.655Z,3.53
2023-05-10T10:03:49.718Z,3.70
2023-05-10T10:05:58.101Z,3.17
2023-05-10T10:08:07.742Z,3.50
2023-05-10T10:10:18.623Z,3.60
2023-05-10T10:12:27.887Z,3.40
2023-05-10T10:14:37.442Z,3.90
2023-05-10T10:16:55.671Z,3.50
2023-05-10T10:19:14.360Z,3.23
2023-05-10T10:21:23.255Z,3.37
2023-05-10T10:23:31.889Z,3.30
2023-05-10T10:25:42.510Z,3.50
2023-05-10T10:28:00.269Z,3.40
2023-05-10T10:30:19.408Z,3.10
2023-05-10T10:32:38.209Z,3.70
2023-05-10T10:34:47.111Z,3.70
2023-05-10T10:36:57.749Z,2.97
2023-05-10T10:39:11.999Z,3.30
2023-05-10T10:41:33.887Z,3.30
2023-05-10T10:43:42.808Z,3.77
2023-05-10T10:46:13.348Z,3.60
2023-05-10T10:48:25.437Z,3.60
2023-05-10T10:50:45.413Z,3.23
2023-05-10T10:52:54.118Z,3.50
2023-05-10T10:55:05.121Z,3.00
2023-05-10T10:57:15.927Z,3.33
2023-05-10T10:59:30.095Z,3.37
2023-05-10T11:01:38.875Z,2.87
2023-05-10T11:04:23.913Z,3.30
2023-05-10T11:06:34.692Z,3.47
2023-05-10T11:08:47.045Z,3.60
2023-05-10T11:11:05.775Z,3.00
2023-05-10T11:13:15.764Z,3.13
2023-05-10T11:15:32.526Z,3.23
2023-05-10T11:17:41.105Z,3.23
2023-05-10T11:20:11.096Z,3.23
2023-05-10T11:22:19.640Z,3.13
2023-05-10T11:24:30.342Z,2.93
2023-05-10T11:26:39.158Z,2.87
2023-05-10T11:28:51.321Z,3.10
2023-05-10T11:30:59.909Z,2.97
2023-05-10T11:33:09.794Z,3.00
2023-05-10T11:35:18.545Z,2.87
2023-05-10T11:37:33.347Z,3.03
2023-05-10T11:39:48.286Z,2.90
2023-05-10T11:41:57.793Z,3.00
2023-05-10T11:44:07.773Z,2.90
2023-05-10T11:46:16.980Z,3.23
2023-05-10T11:48:25.296Z,3.47
2023-05-10T11:50:33.732Z,3.27
2023-05-10T11:52:42.611Z,3.13
2023-05-10T11:54:54.664Z,3.00
2023-05-10T11:57:03.695Z,3.20
2023-05-10T11:59:16.805Z,3.27
2023-05-10T12:01:25.695Z,2.90
2023-05-10T12:03:35.185Z,3.23
2023-05-10T12:05:44.481Z,2.97
2023-05-10T12:07:52.788Z,3.13
2023-05-10T12:10:09.573Z,3.40
2023-05-10T12:12:19.470Z,3.30
2023-05-10T12:14:29.888Z,3.10
2023-05-10T12:16:38.854Z,3.23
2023-05-10T12:18:47.841Z,3.10
2023-05-10T12:20:56.761Z,3.13
2023-05-10T12:23:06.531Z,3.07
2023-05-10T12:25:15.265Z,3.10
2023-05-10T12:27:23.815Z,3.10
2023-05-10T12:29:34.108Z,3.33
2023-05-10T12:31:55.662Z,3.53
2023-05-10T12:34:04.417Z,2.87
2023-05-10T12:36:14.247Z,3.00
2023-05-10T12:38:31.936Z,3.00
2023-05-10T12:40:40.906Z,3.37
2023-05-10T12:42:50.107Z,2.70
2023-05-10T12:45:00.757Z,3.23
2023-05-10T12:47:10.144Z,3.47
2023-05-10T12:49:20.063Z,3.00
2023-05-10T12:51:28.705Z,3.47
2023-05-10T12:53:37.525Z,3.00
2023-05-10T12:55:46.661Z,2.70
2023-05-10T12:57:55.178Z,2.97
2023-05-10T13:00:06.557Z,3.23
2023-05-10T13:02:15.751Z,3.20
2023-05-10T13:04:24.297Z,3.67
2023-05-10T13:06:33.633Z,3.17
2023-05-10T13:08:42.355Z,3.30
2023-05-10T13:10:51.261Z,3.00
2023-05-10T13:13:00.568Z,3.10
2023-05-10T13:15:12.498Z,2.80
2023-05-10T13:17:21.073Z,3.10
2023-05-10T13:19:29.876Z,3.20
2023-05-10T13:21:38.584Z,3.50
2023-05-10T13:23:47.999Z,3.93
2023-05-10T13:25:56.832Z,3.20
2023-05-10T13:28:05.368Z,3.00
2023-05-10T13:30:15.792Z,3.00
2023-05-10T13:32:24.394Z,3.20
2023-05-10T13:34:33.257Z,3.60
2023-05-10T13:36:41.690Z,3.10
2023-05-10T13:38:50.157Z,3.03
2023-05-10T13:40:58.924Z,2.77
2023-05-10T13:43:07.426Z,3.37
2023-05-10T13:45:17.911Z,3.07
2023-05-10T13:47:27.351Z,3.20
2023-05-10T13:49:36.355Z,3.10
2023-05-10T13:51:47.063Z,3.00
2023-05-10T13:53:55.823Z,3.13
2023-05-10T13:56:04.672Z,2.90
2023-05-10T13:58:13.353Z,2.90
2023-05-10T14:00:24.808Z,2.90
2023-05-10T14:02:34.021Z,3.10
2023-05-10T14:04:42.627Z,3.10
2023-05-10T14:06:51.794Z,3.00
2023-05-10T14:09:00.919Z,2.70
2023-05-10T14:11:09.793Z,3.23
2023-05-10T14:13:19.138Z,3.10
2023-05-10T14:15:29.265Z,3.10
2023-05-10T14:17:37.851Z,3.07
2023-05-10T14:19:46.955Z,2.83
2023-05-10T14:21:55.745Z,2.80
2023-05-10T14:24:04.910Z,2.80
2023-05-10T14:26:14.243Z,2.60
2023-05-10T14:28:24.737Z,3.03
2023-05-10T14:30:35.612Z,2.43
2023-05-10T14:32:44.729Z,2.90
2023-05-10T14:34:53.518Z,2.70
2023-05-10T14:37:02.236Z,3.03
2023-05-10T14:39:13.815Z,2.53
2023-05-10T14:41:23.071Z,3.40
2023-05-10T14:43:31.990Z,2.70
2023-05-10T14:45:42.477Z,3.07
2023-05-10T14:47:51.634Z,2.93
2023-05-10T14:50:01.314Z,2.80
2023-05-10T14:52:10.131Z,3.20
2023-05-10T14:54:19.201Z,3.33
2023-05-10T14:56:29.326Z,3.07
2023-05-10T14:58:38.276Z,2.90
2023-05-10T15:00:48.455Z,2.73
2023-05-10T15:02:57.698Z,2.60
2023-05-10T15:05:07.658Z,2.90
2023-05-10T15:07:17.537Z,2.83
2023-05-10T15:09:26.862Z,2.67
2023-05-10T15:11:36.095Z,2.90
2023-05-10T15:13:44.908Z,3.33
2023-05-10T15:15:55.387Z,2.93
2023-05-10T15:18:04.406Z,2.80
2023-05-10T15:20:13.590Z,2.90
2023-05-10T15:22:22.326Z,2.63
2023-05-10T15:24:31.092Z,2.67
2023-05-10T15:26:40.523Z,2.60
2023-05-10T15:28:49.750Z,2.90
2023-05-10T15:30:59.951Z,3.20
2023-05-10T15:33:09.886Z,2.80
2023-05-10T15:35:19.778Z,2.80
2023-05-10T15:37:28.621Z,2.67
2023-05-10T15:39:37.095Z,2.87
2023-05-10T15:41:46.323Z,2.70
2023-05-10T15:43:55.207Z,2.70
2023-05-10T15:46:07.265Z,3.33
2023-05-10T15:48:16.357Z,2.60
2023-05-10T15:50:25.334Z,2.63
2023-05-10T15:52:34.520Z,2.67
2023-05-10T15:54:43.671Z,2.80
2023-05-10T15:56:52.700Z,2.63
2023-05-10T15:59:01.841Z,2.60
2023-05-10T16:01:13.483Z,2.90
2023-05-10T16:03:22.385Z,2.67
2023-05-10T16:05:33.687Z,3.10
2023-05-10T16:07:43.708Z,2.60
2023-05-10T16:09:52.428Z,2.63
2023-05-10T16:12:02.177Z,2.47
2023-05-10T16:14:11.084Z,2.60
2023-05-10T16:16:21.393Z,2.70
2023-05-10T16:18:30.649Z,2.77
2023-05-10T16:20:39.487Z,2.47
2023-05-10T16:22:48.065Z,2.43
2023-05-10T16:24:57.438Z,2.50
2023-05-10T16:27:06.054Z,2.87
2023-05-10T16:29:14.962Z,2.73
2023-05-10T16:31:26.160Z,2.73
2023-05-10T16:33:35.355Z,2.67
2023-05-10T16:35:44.580Z,2.53
2023-05-10T16:37:53.873Z,2.60
2023-05-10T16:40:02.845Z,2.40
2023-05-10T16:42:11.777Z,2.67
2023-05-10T16:44:21.889Z,3.10
2023-05-10T16:46:33.703Z,2.90
2023-05-10T16:48:42.985Z,2.70
2023-05-10T16:50:52.484Z,2.63
2023-05-10T16:53:01.096Z,2.50
2023-05-10T16:55:10.319Z,2.50
2023-05-10T16:57:19.640Z,2.97
2023-05-10T16:59:28.663Z,2.73
2023-05-10T17:01:39.073Z,2.53
2023-05-10T17:03:48.239Z,2.43
2023-05-10T17:05:57.474Z,2.60
2023-05-10T17:08:06.577Z,2.43
2023-05-10T17:10:15.202Z,2.67
2023-05-10T17:12:23.882Z,2.90
2023-05-10T17:14:32.596Z,2.50
2023-05-10T17:16:43.945Z,2.20
2023-05-10T17:18:52.907Z,2.40
2023-05-10T17:21:02.340Z,2.47
2023-05-10T17:23:11.395Z,2.20
2023-05-10T17:25:20.682Z,2.27
2023-05-10T17:27:30.699Z,2.33
2023-05-10T17:29:39.388Z,2.47
2023-05-10T17:31:49.641Z,2.47
2023-05-10T17:33:58.315Z,2.50
2023-05-10T17:36:07.343Z,2.30
2023-05-10T17:38:16.659Z,2.40
2023-05-10T17:40:25.948Z,2.40
2023-05-10T17:42:35.166Z,2.50
2023-05-10T17:44:44.141Z,2.50
2023-05-10T17:46:54.191Z,2.40
2023-05-10T17:49:03.148Z,2.50
2023-05-10T17:51:12.844Z,2.40
2023-05-10T17:53:21.728Z,2.40
2023-05-10T17:55:30.899Z,2.87
2023-05-10T17:57:40.254Z,2.30
2023-05-10T17:59:49.211Z,2.50
2023-05-10T18:01:59.557Z,2.40
2023-05-10T18:04:08.241Z,2.43
2023-05-10T18:06:17.141Z,2.23
2023-05-10T18:08:27.816Z,2.40
2023-05-10T18:10:36.827Z,2.80
2023-05-10T18:12:46.722Z,2.40
2023-05-10T18:14:55.445Z,2.70
2023-05-10T18:17:06.190Z,2.20
2023-05-10T18:19:15.011Z,2.40
2023-05-10T18:21:23.559Z,2.43
2023-05-10T18:23:32.058Z,2.40
2023-05-10T18:25:40.601Z,2.40
2023-05-10T18:27:49.309Z,2.30
2023-05-10T18:29:58.231Z,2.30
2023-05-10T18:32:08.812Z,2.57
2023-05-10T18:34:18.928Z,2.27
2023-05-10T18:36:28.286Z,2.30
2023-05-10T18:38:37.222Z,2.30
2023-05-10T18:40:45.672Z,2.47
2023-05-10T18:42:54.292Z,2.40
2023-05-10T18:45:03.625Z,2.90
2023-05-10T18:47:14.441Z,2.63
2023-05-10T18:49:22.872Z,2.37
2023-05-10T18:51:32.157Z,2.30
2023-05-10T18:53:41.120Z,2.23
2023-05-10T18:55:57.317Z,2.37
2023-05-10T18:58:05.904Z,2.53
2023-05-10T19:00:15.019Z,2.00
2023-05-10T19:02:26.926Z,2.63
2023-05-10T19:04:35.891Z,2.10
2023-05-10T19:06:44.920Z,2.27
2023-05-10T19:08:53.636Z,2.30
2023-05-10T19:11:02.086Z,2.37
2023-05-10T19:13:11.095Z,2.33
2023-05-10T19:15:21.764Z,2.70
2023-05-10T19:17:35.881Z,2.37
2023-05-10T19:19:48.753Z,2.30
2023-05-10T19:21:58.310Z,2.27
2023-05-10T19:24:07.711Z,2.33
2023-05-10T19:26:16.454Z,2.77
2023-05-10T19:28:25.414Z,2.70
2023-05-10T19:30:34.403Z,2.50
2023-05-10T19:32:44.508Z,2.47
2023-05-10T19:34:53.900Z,2.40
2023-05-10T19:37:02.708Z,2.80
2023-05-10T19:39:11.440Z,2.40
2023-05-10T19:41:19.995Z,2.47
2023-05-10T19:43:29.534Z,2.23
2023-05-10T19:45:39.297Z,2.90
2023-05-10T19:47:50.103Z,2.17
2023-05-10T19:49:58.833Z,2.57
2023-05-10T19:52:08.334Z,2.67
2023-05-10T19:54:17.003Z,2.60
2023-05-10T19:56:27.071Z,2.70
2023-05-10T19:58:36.457Z,2.50
2023-05-10T20:00:45.267Z,2.40
2023-05-10T20:02:56.297Z,2.50
2023-05-10T20:05:05.542Z,2.50
2023-05-10T20:07:14.700Z,2.50
2023-05-10T20:09:23.495Z,2.87
2023-05-10T20:11:32.147Z,2.60
2023-05-10T20:13:40.953Z,2.80
2023-05-10T20:15:50.342Z,2.70
2023-05-10T20:18:00.759Z,2.60
2023-05-10T20:20:10.063Z,2.80
2023-05-10T20:22:18.860Z,3.20
2023-05-10T20:24:27.390Z,2.70
2023-05-10T20:26:36.037Z,3.07
2023-05-10T20:28:44.646Z,2.60
2023-05-10T20:30:54.302Z,3.20
2023-05-10T20:33:05.062Z,3.00
2023-05-10T20:35:14.097Z,2.97
2023-05-10T20:37:23.458Z,2.77
2023-05-10T20:39:32.436Z,3.00
2023-05-10T20:41:41.011Z,3.00
2023-05-10T20:43:50.060Z,3.10
2023-05-10T20:46:05.722Z,3.17
2023-05-10T20:48:16.923Z,2.87
2023-05-10T20:50:25.640Z,3.10
2023-05-10T20:52:34.759Z,3.43
2023-05-10T20:54:44.125Z,3.37
2023-05-10T20:56:53.129Z,3.30
2023-05-10T20:59:02.549Z,3.10
2023-05-10T21:01:11.703Z,3.20
2023-05-10T21:03:22.222Z,3.33
2023-05-10T21:05:30.948Z,3.20
2023-05-10T21:07:40.476Z,3.17
2023-05-10T21:09:49.018Z,3.30
2023-05-10T21:11:57.647Z,3.60
2023-05-10T21:14:06.437Z,3.40
2023-05-10T21:16:15.520Z,3.63
2023-05-10T21:18:26.088Z,3.60
2023-05-10T21:20:35.139Z,3.00
2023-05-10T21:22:43.774Z,3.47
2023-05-10T21:24:53.024Z,3.30
2023-05-10T21:27:01.874Z,3.80
2023-05-10T21:29:10.548Z,3.60
2023-05-10T21:31:19.634Z,3.70
2023-05-10T21:33:29.731Z,3.40
2023-05-10T21:35:42.708Z,3.83
2023-05-10T21:37:52.073Z,3.27
2023-05-10T21:40:00.680Z,3.80
2023-05-10T21:42:09.520Z,3.27
2023-05-10T21:44:18.125Z,4.17
2023-05-10T21:46:27.257Z,3.40
2023-05-10T21:48:37.309Z,3.80
2023-05-10T21:50:47.789Z,3.47
2023-05-10T21:52:57.234Z,3.63
2023-05-10T21:55:06.623Z,3.43
2023-05-10T21:57:15.624Z,3.90
2023-05-10T21:59:24.746Z,3.67
2023-05-10T22:01:34.027Z,4.30
2023-05-10T22:03:44.821Z,3.73
2023-05-10T22:05:53.945Z,3.57
2023-05-10T22:08:02.940Z,3.47
2023-05-10T22:10:12.135Z,3.57
2023-05-10T22:12:20.714Z,3.50
2023-05-10T22:14:29.812Z,3.90
2023-05-10T22:16:38.585Z,3.70
2023-05-10T22:18:48.998Z,3.30
2023-05-10T22:20:57.525Z,3.60
2023-05-10T22:23:07.331Z,3.53
2023-05-10T22:25:16.073Z,3.70
2023-05-10T22:27:25.043Z,3.70
2023-05-10T22:29:34.002Z,3.90
2023-05-10T22:31:43.127Z,3.17
2023-05-10T22:33:54.220Z,3.73
2023-05-10T22:36:03.194Z,3.13
2023-05-10T22:38:12.772Z,3.43
2023-05-10T22:40:21.794Z,3.33
2023-05-10T22:42:30.615Z,3.40
2023-05-10T22:44:39.968Z,3.67
2023-05-10T22:46:48.717Z,3.57
2023-05-10T22:48:59.556Z,3.40
2023-05-10T22:51:08.424Z,3.93
2023-05-10T22:53:17.614Z,3.40
2023-05-10T22:55:26.453Z,3.67
2023-05-10T22:57:35.863Z,3.80
2023-05-10T22:59:45.292Z,3.90
2023-05-10T23:01:54.380Z,3.80
2023-05-10T23:04:04.990Z,4.47
2023-05-10T23:06:14.395Z,4.13
2023-05-10T23:08:24.835Z,4.13
2023-05-10T23:10:33.465Z,4.00
2023-05-10T23:12:42.387Z,3.70
2023-05-10T23:14:51.510Z,3.60
2023-05-10T23:17:00.273Z,3.97
2023-05-10T23:19:10.360Z,4.07
2023-05-10T23:21:19.265Z,3.70
2023-05-10T23:23:27.945Z,3.60
2023-05-10T23:25:37.760Z,3.57
2023-05-10T23:27:46.595Z,3.47
2023-05-10T23:29:56.074Z,4.10
2023-05-10T23:32:04.761Z,4.00
2023-05-10T23:34:15.659Z,3.93
2023-05-10T23:36:24.648Z,4.97
2023-05-10T23:38:33.625Z,4.07
2023-05-10T23:40:42.174Z,4.00
2023-05-10T23:42:51.832Z,3.87
2023-05-10T23:45:00.805Z,3.73
2023-05-10T23:47:09.805Z,3.60
2023-05-10T23:49:20.126Z,4.20
2023-05-10T23:51:28.961Z,4.30
2023-05-10T23:53:37.759Z,3.93
2023-05-10T23:55:46.417Z,3.87
2023-05-10T23:57:56.038Z,3.93
